<?xml version="1.0" encoding="UTF-8"?>
<gpx xmlns="http://www.topografix.com/GPX/1/1" xmlns:xsi="http://www.w3.org/2001/XMLSchema-instance" version="1.1" xsi:schemaLocation="http://www.topografix.com/GPX/1/1 http://www.topografix.com/GPX/1/1/gpx.xsd">
  <metadata>
    <name>Pinehurst Triathlon Festival 2022 - Sprint Aquabike</name>
  </metadata>
  <trk>
    <name>Pinehurst Triathlon Festival 2022 - Sprint Aquabike</name>
    <trkseg>
      <trkpt lat="35.165669" lon="-79.496659">
        <ele>132.577279</ele>
        <time>2024-04-13T08:31:00.000Z</time>
      </trkpt>
      <trkpt lat="35.165655" lon="-79.496672">
        <ele>132.57729</ele>
        <time>2024-04-13T08:31:00.000Z</time>
      </trkpt>
      <trkpt lat="35.165666" lon="-79.496675">
        <ele>132.577278</ele>
        <time>2024-04-13T08:31:00.000Z</time>
      </trkpt>
      <trkpt lat="35.166388" lon="-79.497467">
        <ele>132.472991</ele>
        <time>2024-04-13T08:31:11.000Z</time>
      </trkpt>
      <trkpt lat="35.166022" lon="-79.497951">
        <ele>131.670685</ele>
        <time>2024-04-13T08:31:17.000Z</time>
      </trkpt>
      <trkpt lat="35.16423" lon="-79.496347">
        <ele>127.426002</ele>
        <time>2024-04-13T08:31:42.000Z</time>
      </trkpt>
      <trkpt lat="35.163716" lon="-79.496005">
        <ele>125.989419</ele>
        <time>2024-04-13T08:31:49.000Z</time>
      </trkpt>
      <trkpt lat="35.163093" lon="-79.495773">
        <ele>123.990397</ele>
        <time>2024-04-13T08:31:56.000Z</time>
      </trkpt>
      <trkpt lat="35.160593" lon="-79.495262">
        <ele>116.299893</ele>
        <time>2024-04-13T08:32:24.000Z</time>
      </trkpt>
      <trkpt lat="35.16025" lon="-79.495158">
        <ele>115.341288</ele>
        <time>2024-04-13T08:32:28.000Z</time>
      </trkpt>
      <trkpt lat="35.159706" lon="-79.494825">
        <ele>115.38127</ele>
        <time>2024-04-13T08:32:35.000Z</time>
      </trkpt>
      <trkpt lat="35.159196" lon="-79.494194">
        <ele>116.716384</ele>
        <time>2024-04-13T08:32:43.000Z</time>
      </trkpt>
      <trkpt lat="35.15913" lon="-79.494108">
        <ele>116.87887</ele>
        <time>2024-04-13T08:32:44.000Z</time>
      </trkpt>
      <trkpt lat="35.158618" lon="-79.493253">
        <ele>119.115137</ele>
        <time>2024-04-13T08:32:54.000Z</time>
      </trkpt>
      <trkpt lat="35.15828" lon="-79.492434">
        <ele>122.223799</ele>
        <time>2024-04-13T08:33:02.000Z</time>
      </trkpt>
      <trkpt lat="35.158115" lon="-79.491779">
        <ele>124.483373</ele>
        <time>2024-04-13T08:33:08.000Z</time>
      </trkpt>
      <trkpt lat="35.157536" lon="-79.488498">
        <ele>133.270295</ele>
        <time>2024-04-13T08:33:39.000Z</time>
      </trkpt>
      <trkpt lat="35.157516" lon="-79.488332">
        <ele>133.551402</ele>
        <time>2024-04-13T08:33:41.000Z</time>
      </trkpt>
      <trkpt lat="35.157109" lon="-79.485022">
        <ele>137.740547</ele>
        <time>2024-04-13T08:34:11.000Z</time>
      </trkpt>
      <trkpt lat="35.157107" lon="-79.484286">
        <ele>139.072435</ele>
        <time>2024-04-13T08:34:18.000Z</time>
      </trkpt>
      <trkpt lat="35.157197" lon="-79.483654">
        <ele>140.246009</ele>
        <time>2024-04-13T08:34:24.000Z</time>
      </trkpt>
      <trkpt lat="35.157492" lon="-79.482671">
        <ele>142.313308</ele>
        <time>2024-04-13T08:34:34.000Z</time>
      </trkpt>
      <trkpt lat="35.157872" lon="-79.481943">
        <ele>144.415519</ele>
        <time>2024-04-13T08:34:42.000Z</time>
      </trkpt>
      <trkpt lat="35.158714" lon="-79.480525">
        <ele>148.439483</ele>
        <time>2024-04-13T08:34:58.000Z</time>
      </trkpt>
      <trkpt lat="35.158884" lon="-79.480143">
        <ele>149.309315</ele>
        <time>2024-04-13T08:35:02.000Z</time>
      </trkpt>
      <trkpt lat="35.159016" lon="-79.479667">
        <ele>150.303713</ele>
        <time>2024-04-13T08:35:07.000Z</time>
      </trkpt>
      <trkpt lat="35.159806" lon="-79.476767">
        <ele>155.192399</ele>
        <time>2024-04-13T08:35:35.000Z</time>
      </trkpt>
      <trkpt lat="35.159893" lon="-79.476438">
        <ele>155.566103</ele>
        <time>2024-04-13T08:35:38.000Z</time>
      </trkpt>
      <trkpt lat="35.159998" lon="-79.475502">
        <ele>156.631118</ele>
        <time>2024-04-13T08:35:47.000Z</time>
      </trkpt>
      <trkpt lat="35.16013" lon="-79.471503">
        <ele>159.877475</ele>
        <time>2024-04-13T08:36:23.000Z</time>
      </trkpt>
      <trkpt lat="35.156626" lon="-79.471439">
        <ele>157.699221</ele>
        <time>2024-04-13T08:37:02.000Z</time>
      </trkpt>
      <trkpt lat="35.151974" lon="-79.470657">
        <ele>152.063502</ele>
        <time>2024-04-13T08:37:54.000Z</time>
      </trkpt>
      <trkpt lat="35.150054" lon="-79.470324">
        <ele>149.926456</ele>
        <time>2024-04-13T08:38:16.000Z</time>
      </trkpt>
      <trkpt lat="35.148879" lon="-79.470116">
        <ele>148.456169</ele>
        <time>2024-04-13T08:38:29.000Z</time>
      </trkpt>
      <trkpt lat="35.148504" lon="-79.469988">
        <ele>147.979539</ele>
        <time>2024-04-13T08:38:33.000Z</time>
      </trkpt>
      <trkpt lat="35.147937" lon="-79.469617">
        <ele>147.256989</ele>
        <time>2024-04-13T08:38:40.000Z</time>
      </trkpt>
      <trkpt lat="35.147524" lon="-79.469118">
        <ele>146.57454</ele>
        <time>2024-04-13T08:38:46.000Z</time>
      </trkpt>
      <trkpt lat="35.147245" lon="-79.468603">
        <ele>145.994094</ele>
        <time>2024-04-13T08:38:52.000Z</time>
      </trkpt>
      <trkpt lat="35.146927" lon="-79.467382">
        <ele>144.734258</ele>
        <time>2024-04-13T08:39:04.000Z</time>
      </trkpt>
      <trkpt lat="35.146445" lon="-79.465454">
        <ele>143.247233</ele>
        <time>2024-04-13T08:39:22.000Z</time>
      </trkpt>
      <trkpt lat="35.144625" lon="-79.466057">
        <ele>142.015471</ele>
        <time>2024-04-13T08:39:43.000Z</time>
      </trkpt>
      <trkpt lat="35.143515" lon="-79.466391">
        <ele>141.098106</ele>
        <time>2024-04-13T08:39:56.000Z</time>
      </trkpt>
      <trkpt lat="35.142716" lon="-79.466731">
        <ele>140.056479</ele>
        <time>2024-04-13T08:40:05.000Z</time>
      </trkpt>
      <trkpt lat="35.141187" lon="-79.467515">
        <ele>138.36654</ele>
        <time>2024-04-13T08:40:23.000Z</time>
      </trkpt>
      <trkpt lat="35.140754" lon="-79.467763">
        <ele>137.959214</ele>
        <time>2024-04-13T08:40:28.000Z</time>
      </trkpt>
      <trkpt lat="35.14006" lon="-79.46832">
        <ele>137.541737</ele>
        <time>2024-04-13T08:40:37.000Z</time>
      </trkpt>
      <trkpt lat="35.139328" lon="-79.469092">
        <ele>137.279975</ele>
        <time>2024-04-13T08:40:48.000Z</time>
      </trkpt>
      <trkpt lat="35.137948" lon="-79.470537">
        <ele>137.300568</ele>
        <time>2024-04-13T08:41:08.000Z</time>
      </trkpt>
      <trkpt lat="35.137335" lon="-79.471212">
        <ele>137.07738</ele>
        <time>2024-04-13T08:41:17.000Z</time>
      </trkpt>
      <trkpt lat="35.137095" lon="-79.471407">
        <ele>136.939808</ele>
        <time>2024-04-13T08:41:20.000Z</time>
      </trkpt>
      <trkpt lat="35.136828" lon="-79.471652">
        <ele>136.776178</ele>
        <time>2024-04-13T08:41:24.000Z</time>
      </trkpt>
      <trkpt lat="35.135158" lon="-79.472587">
        <ele>135.46399</ele>
        <time>2024-04-13T08:41:44.000Z</time>
      </trkpt>
      <trkpt lat="35.133018" lon="-79.47375">
        <ele>133.530431</ele>
        <time>2024-04-13T08:42:10.000Z</time>
      </trkpt>
      <trkpt lat="35.130884" lon="-79.474894">
        <ele>132.180136</ele>
        <time>2024-04-13T08:42:36.000Z</time>
      </trkpt>
      <trkpt lat="35.130887" lon="-79.478955">
        <ele>127.956615</ele>
        <time>2024-04-13T08:43:13.000Z</time>
      </trkpt>
      <trkpt lat="35.130962" lon="-79.48697">
        <ele>111.131802</ele>
        <time>2024-04-13T08:44:26.000Z</time>
      </trkpt>
      <trkpt lat="35.131011" lon="-79.4887">
        <ele>108.307246</ele>
        <time>2024-04-13T08:44:42.000Z</time>
      </trkpt>
      <trkpt lat="35.131168" lon="-79.489529">
        <ele>107.071316</ele>
        <time>2024-04-13T08:44:50.000Z</time>
      </trkpt>
      <trkpt lat="35.131319" lon="-79.490136">
        <ele>106.875006</ele>
        <time>2024-04-13T08:44:56.000Z</time>
      </trkpt>
      <trkpt lat="35.13168" lon="-79.490985">
        <ele>107.079621</ele>
        <time>2024-04-13T08:45:05.000Z</time>
      </trkpt>
      <trkpt lat="35.13348" lon="-79.494498">
        <ele>111.907457</ele>
        <time>2024-04-13T08:45:43.000Z</time>
      </trkpt>
      <trkpt lat="35.133657" lon="-79.494934">
        <ele>112.600153</ele>
        <time>2024-04-13T08:45:47.000Z</time>
      </trkpt>
      <trkpt lat="35.13379" lon="-79.495412">
        <ele>113.293145</ele>
        <time>2024-04-13T08:45:52.000Z</time>
      </trkpt>
      <trkpt lat="35.133878" lon="-79.495929">
        <ele>114.074314</ele>
        <time>2024-04-13T08:45:57.000Z</time>
      </trkpt>
      <trkpt lat="35.13429" lon="-79.500307">
        <ele>120.848987</ele>
        <time>2024-04-13T08:46:37.000Z</time>
      </trkpt>
      <trkpt lat="35.134798" lon="-79.504856">
        <ele>127.935847</ele>
        <time>2024-04-13T08:47:19.000Z</time>
      </trkpt>
      <trkpt lat="35.13506" lon="-79.507358">
        <ele>130.175791</ele>
        <time>2024-04-13T08:47:42.000Z</time>
      </trkpt>
      <trkpt lat="35.13515" lon="-79.508158">
        <ele>130.726117</ele>
        <time>2024-04-13T08:47:49.000Z</time>
      </trkpt>
      <trkpt lat="35.135293" lon="-79.509348">
        <ele>131.441651</ele>
        <time>2024-04-13T08:48:00.000Z</time>
      </trkpt>
      <trkpt lat="35.135292" lon="-79.509439">
        <ele>131.497067</ele>
        <time>2024-04-13T08:48:01.000Z</time>
      </trkpt>
      <trkpt lat="35.135766" lon="-79.514059">
        <ele>134.045516</ele>
        <time>2024-04-13T08:48:43.000Z</time>
      </trkpt>
      <trkpt lat="35.136184" lon="-79.5165">
        <ele>135.508715</ele>
        <time>2024-04-13T08:49:06.000Z</time>
      </trkpt>
      <trkpt lat="35.136658" lon="-79.5192">
        <ele>137.174228</ele>
        <time>2024-04-13T08:49:31.000Z</time>
      </trkpt>
      <trkpt lat="35.136776" lon="-79.51988">
        <ele>137.518038</ele>
        <time>2024-04-13T08:49:37.000Z</time>
      </trkpt>
      <trkpt lat="35.137234" lon="-79.522519">
        <ele>138.318591</ele>
        <time>2024-04-13T08:50:02.000Z</time>
      </trkpt>
      <trkpt lat="35.137803" lon="-79.526249">
        <ele>137.291781</ele>
        <time>2024-04-13T08:50:37.000Z</time>
      </trkpt>
      <trkpt lat="35.138344" lon="-79.529976">
        <ele>133.390979</ele>
        <time>2024-04-13T08:51:11.000Z</time>
      </trkpt>
      <trkpt lat="35.138945" lon="-79.535203">
        <ele>123.686502</ele>
        <time>2024-04-13T08:51:59.000Z</time>
      </trkpt>
      <trkpt lat="35.139231" lon="-79.536556">
        <ele>120.97524</ele>
        <time>2024-04-13T08:52:12.000Z</time>
      </trkpt>
      <trkpt lat="35.139686" lon="-79.537756">
        <ele>118.213333</ele>
        <time>2024-04-13T08:52:24.000Z</time>
      </trkpt>
      <trkpt lat="35.142446" lon="-79.542921">
        <ele>105.032777</ele>
        <time>2024-04-13T08:53:20.000Z</time>
      </trkpt>
      <trkpt lat="35.142523" lon="-79.543169">
        <ele>104.746519</ele>
        <time>2024-04-13T08:53:22.000Z</time>
      </trkpt>
      <trkpt lat="35.142781" lon="-79.54442">
        <ele>103.691274</ele>
        <time>2024-04-13T08:53:34.000Z</time>
      </trkpt>
      <trkpt lat="35.143112" lon="-79.545292">
        <ele>106.370663</ele>
        <time>2024-04-13T08:53:43.000Z</time>
      </trkpt>
      <trkpt lat="35.146575" lon="-79.553775">
        <ele>132.626855</ele>
        <time>2024-04-13T08:55:09.000Z</time>
      </trkpt>
      <trkpt lat="35.146677" lon="-79.55421">
        <ele>133.883121</ele>
        <time>2024-04-13T08:55:13.000Z</time>
      </trkpt>
      <trkpt lat="35.146737" lon="-79.55471">
        <ele>134.741678</ele>
        <time>2024-04-13T08:55:18.000Z</time>
      </trkpt>
      <trkpt lat="35.146918" lon="-79.56001">
        <ele>143.35719</ele>
        <time>2024-04-13T08:56:06.000Z</time>
      </trkpt>
      <trkpt lat="35.146874" lon="-79.560485">
        <ele>144.035628</ele>
        <time>2024-04-13T08:56:10.000Z</time>
      </trkpt>
      <trkpt lat="35.146288" lon="-79.564154">
        <ele>147.097055</ele>
        <time>2024-04-13T08:56:44.000Z</time>
      </trkpt>
      <trkpt lat="35.146325" lon="-79.566718">
        <ele>148.758419</ele>
        <time>2024-04-13T08:57:07.000Z</time>
      </trkpt>
      <trkpt lat="35.146906" lon="-79.56682">
        <ele>149.221525</ele>
        <time>2024-04-13T08:57:14.000Z</time>
      </trkpt>
      <trkpt lat="35.156019" lon="-79.569579">
        <ele>157.401843</ele>
        <time>2024-04-13T08:58:58.000Z</time>
      </trkpt>
      <trkpt lat="35.157286" lon="-79.569916">
        <ele>157.852778</ele>
        <time>2024-04-13T08:59:12.000Z</time>
      </trkpt>
      <trkpt lat="35.160202" lon="-79.569864">
        <ele>156.102951</ele>
        <time>2024-04-13T08:59:44.000Z</time>
      </trkpt>
      <trkpt lat="35.164014" lon="-79.569747">
        <ele>155.387302</ele>
        <time>2024-04-13T09:00:26.000Z</time>
      </trkpt>
      <trkpt lat="35.164541" lon="-79.569729">
        <ele>155.550826</ele>
        <time>2024-04-13T09:00:32.000Z</time>
      </trkpt>
      <trkpt lat="35.164605" lon="-79.569723">
        <ele>155.651725</ele>
        <time>2024-04-13T09:00:33.000Z</time>
      </trkpt>
      <trkpt lat="35.16643" lon="-79.569686">
        <ele>158.980019</ele>
        <time>2024-04-13T09:00:53.000Z</time>
      </trkpt>
      <trkpt lat="35.167222" lon="-79.569668">
        <ele>160.201171</ele>
        <time>2024-04-13T09:01:02.000Z</time>
      </trkpt>
      <trkpt lat="35.169287" lon="-79.569611">
        <ele>162.101142</ele>
        <time>2024-04-13T09:01:25.000Z</time>
      </trkpt>
      <trkpt lat="35.171734" lon="-79.569535">
        <ele>161.830079</ele>
        <time>2024-04-13T09:01:52.000Z</time>
      </trkpt>
      <trkpt lat="35.172514" lon="-79.569632">
        <ele>161.818371</ele>
        <time>2024-04-13T09:02:01.000Z</time>
      </trkpt>
      <trkpt lat="35.172928" lon="-79.569776">
        <ele>161.812136</ele>
        <time>2024-04-13T09:02:06.000Z</time>
      </trkpt>
      <trkpt lat="35.173339" lon="-79.570024">
        <ele>161.805163</ele>
        <time>2024-04-13T09:02:11.000Z</time>
      </trkpt>
      <trkpt lat="35.174511" lon="-79.57072">
        <ele>162.767018</ele>
        <time>2024-04-13T09:02:25.000Z</time>
      </trkpt>
      <trkpt lat="35.17467" lon="-79.570814">
        <ele>162.900756</ele>
        <time>2024-04-13T09:02:27.000Z</time>
      </trkpt>
      <trkpt lat="35.175642" lon="-79.571408">
        <ele>163.915353</ele>
        <time>2024-04-13T09:02:39.000Z</time>
      </trkpt>
      <trkpt lat="35.176137" lon="-79.571653">
        <ele>164.452228</ele>
        <time>2024-04-13T09:02:45.000Z</time>
      </trkpt>
      <trkpt lat="35.176712" lon="-79.571752">
        <ele>165.036041</ele>
        <time>2024-04-13T09:02:51.000Z</time>
      </trkpt>
      <trkpt lat="35.177816" lon="-79.571766">
        <ele>164.383035</ele>
        <time>2024-04-13T09:03:03.000Z</time>
      </trkpt>
      <trkpt lat="35.17926" lon="-79.571797">
        <ele>161.859458</ele>
        <time>2024-04-13T09:03:19.000Z</time>
      </trkpt>
      <trkpt lat="35.180066" lon="-79.568679">
        <ele>153.237304</ele>
        <time>2024-04-13T09:03:49.000Z</time>
      </trkpt>
      <trkpt lat="35.179994" lon="-79.568057">
        <ele>151.609809</ele>
        <time>2024-04-13T09:03:55.000Z</time>
      </trkpt>
      <trkpt lat="35.180017" lon="-79.567657">
        <ele>150.700982</ele>
        <time>2024-04-13T09:03:59.000Z</time>
      </trkpt>
      <trkpt lat="35.180126" lon="-79.567222">
        <ele>149.609638</ele>
        <time>2024-04-13T09:04:03.000Z</time>
      </trkpt>
      <trkpt lat="35.18127" lon="-79.564762">
        <ele>143.421434</ele>
        <time>2024-04-13T09:04:29.000Z</time>
      </trkpt>
      <trkpt lat="35.181669" lon="-79.563497">
        <ele>140.108626</ele>
        <time>2024-04-13T09:04:41.000Z</time>
      </trkpt>
      <trkpt lat="35.182591" lon="-79.558728">
        <ele>128.036525</ele>
        <time>2024-04-13T09:05:26.000Z</time>
      </trkpt>
      <trkpt lat="35.182641" lon="-79.558103">
        <ele>126.593533</ele>
        <time>2024-04-13T09:05:32.000Z</time>
      </trkpt>
      <trkpt lat="35.182605" lon="-79.557621">
        <ele>126.166144</ele>
        <time>2024-04-13T09:05:36.000Z</time>
      </trkpt>
      <trkpt lat="35.182452" lon="-79.556973">
        <ele>125.595912</ele>
        <time>2024-04-13T09:05:42.000Z</time>
      </trkpt>
      <trkpt lat="35.179903" lon="-79.551483">
        <ele>122.871955</ele>
        <time>2024-04-13T09:06:39.000Z</time>
      </trkpt>
      <trkpt lat="35.179644" lon="-79.550919">
        <ele>122.995136</ele>
        <time>2024-04-13T09:06:45.000Z</time>
      </trkpt>
      <trkpt lat="35.179469" lon="-79.550334">
        <ele>123.112052</ele>
        <time>2024-04-13T09:06:51.000Z</time>
      </trkpt>
      <trkpt lat="35.179439" lon="-79.549933">
        <ele>122.893102</ele>
        <time>2024-04-13T09:06:55.000Z</time>
      </trkpt>
      <trkpt lat="35.17945" lon="-79.548774">
        <ele>122.055235</ele>
        <time>2024-04-13T09:07:06.000Z</time>
      </trkpt>
      <trkpt lat="35.179458" lon="-79.547369">
        <ele>120.969464</ele>
        <time>2024-04-13T09:07:19.000Z</time>
      </trkpt>
      <trkpt lat="35.1795" lon="-79.546904">
        <ele>120.58988</ele>
        <time>2024-04-13T09:07:23.000Z</time>
      </trkpt>
      <trkpt lat="35.180185" lon="-79.543933">
        <ele>120.743786</ele>
        <time>2024-04-13T09:07:51.000Z</time>
      </trkpt>
      <trkpt lat="35.180182" lon="-79.543472">
        <ele>121.729364</ele>
        <time>2024-04-13T09:07:55.000Z</time>
      </trkpt>
      <trkpt lat="35.180122" lon="-79.543006">
        <ele>123.106119</ele>
        <time>2024-04-13T09:07:59.000Z</time>
      </trkpt>
      <trkpt lat="35.179872" lon="-79.542301">
        <ele>125.393723</ele>
        <time>2024-04-13T09:08:06.000Z</time>
      </trkpt>
      <trkpt lat="35.179213" lon="-79.540954">
        <ele>130.100096</ele>
        <time>2024-04-13T09:08:20.000Z</time>
      </trkpt>
      <trkpt lat="35.17908" lon="-79.540545">
        <ele>131.45694</ele>
        <time>2024-04-13T09:08:24.000Z</time>
      </trkpt>
      <trkpt lat="35.178677" lon="-79.538113">
        <ele>135.546879</ele>
        <time>2024-04-13T09:08:47.000Z</time>
      </trkpt>
      <trkpt lat="35.178488" lon="-79.5369">
        <ele>134.869692</ele>
        <time>2024-04-13T09:08:58.000Z</time>
      </trkpt>
      <trkpt lat="35.178193" lon="-79.535175">
        <ele>131.616648</ele>
        <time>2024-04-13T09:09:14.000Z</time>
      </trkpt>
      <trkpt lat="35.177862" lon="-79.533317">
        <ele>127.781992</ele>
        <time>2024-04-13T09:09:31.000Z</time>
      </trkpt>
      <trkpt lat="35.177833" lon="-79.532884">
        <ele>127.18582</ele>
        <time>2024-04-13T09:09:35.000Z</time>
      </trkpt>
      <trkpt lat="35.17787" lon="-79.532414">
        <ele>126.595137</ele>
        <time>2024-04-13T09:09:39.000Z</time>
      </trkpt>
      <trkpt lat="35.17858" lon="-79.527606">
        <ele>122.562806</ele>
        <time>2024-04-13T09:10:23.000Z</time>
      </trkpt>
      <trkpt lat="35.180783" lon="-79.520731">
        <ele>138.210019</ele>
        <time>2024-04-13T09:11:30.000Z</time>
      </trkpt>
      <trkpt lat="35.180842" lon="-79.520289">
        <ele>139.303642</ele>
        <time>2024-04-13T09:11:34.000Z</time>
      </trkpt>
      <trkpt lat="35.180806" lon="-79.519084">
        <ele>142.197958</ele>
        <time>2024-04-13T09:11:45.000Z</time>
      </trkpt>
      <trkpt lat="35.180516" lon="-79.51754">
        <ele>146.202762</ele>
        <time>2024-04-13T09:11:59.000Z</time>
      </trkpt>
      <trkpt lat="35.180456" lon="-79.517236">
        <ele>147.011062</ele>
        <time>2024-04-13T09:12:02.000Z</time>
      </trkpt>
      <trkpt lat="35.18037" lon="-79.516751">
        <ele>148.258066</ele>
        <time>2024-04-13T09:12:07.000Z</time>
      </trkpt>
      <trkpt lat="35.180031" lon="-79.515003">
        <ele>152.582968</ele>
        <time>2024-04-13T09:12:23.000Z</time>
      </trkpt>
      <trkpt lat="35.180004" lon="-79.514792">
        <ele>153.087623</ele>
        <time>2024-04-13T09:12:25.000Z</time>
      </trkpt>
      <trkpt lat="35.179978" lon="-79.514241">
        <ele>154.369236</ele>
        <time>2024-04-13T09:12:30.000Z</time>
      </trkpt>
      <trkpt lat="35.18008" lon="-79.513558">
        <ele>155.200068</ele>
        <time>2024-04-13T09:12:36.000Z</time>
      </trkpt>
      <trkpt lat="35.180956" lon="-79.510811">
        <ele>157.925717</ele>
        <time>2024-04-13T09:13:03.000Z</time>
      </trkpt>
      <trkpt lat="35.181611" lon="-79.508788">
        <ele>159.811899</ele>
        <time>2024-04-13T09:13:23.000Z</time>
      </trkpt>
      <trkpt lat="35.18274" lon="-79.505917">
        <ele>161.746044</ele>
        <time>2024-04-13T09:13:52.000Z</time>
      </trkpt>
      <trkpt lat="35.183163" lon="-79.504871">
        <ele>161.911923</ele>
        <time>2024-04-13T09:14:03.000Z</time>
      </trkpt>
      <trkpt lat="35.182081" lon="-79.505659">
        <ele>161.951194</ele>
        <time>2024-04-13T09:14:17.000Z</time>
      </trkpt>
      <trkpt lat="35.180534" lon="-79.506808">
        <ele>161.288574</ele>
        <time>2024-04-13T09:14:37.000Z</time>
      </trkpt>
      <trkpt lat="35.1795" lon="-79.507572">
        <ele>160.282765</ele>
        <time>2024-04-13T09:14:50.000Z</time>
      </trkpt>
      <trkpt lat="35.178757" lon="-79.508116">
        <ele>159.234741</ele>
        <time>2024-04-13T09:15:00.000Z</time>
      </trkpt>
      <trkpt lat="35.178008" lon="-79.508668">
        <ele>158.148213</ele>
        <time>2024-04-13T09:15:10.000Z</time>
      </trkpt>
      <trkpt lat="35.177616" lon="-79.508882">
        <ele>157.695612</ele>
        <time>2024-04-13T09:15:15.000Z</time>
      </trkpt>
      <trkpt lat="35.176773" lon="-79.508927">
        <ele>156.881119</ele>
        <time>2024-04-13T09:15:24.000Z</time>
      </trkpt>
      <trkpt lat="35.176521" lon="-79.508934">
        <ele>156.624822</ele>
        <time>2024-04-13T09:15:27.000Z</time>
      </trkpt>
      <trkpt lat="35.175279" lon="-79.508979">
        <ele>155.374206</ele>
        <time>2024-04-13T09:15:41.000Z</time>
      </trkpt>
      <trkpt lat="35.175221" lon="-79.508986">
        <ele>155.31115</ele>
        <time>2024-04-13T09:15:42.000Z</time>
      </trkpt>
      <trkpt lat="35.174451" lon="-79.508994">
        <ele>154.514375</ele>
        <time>2024-04-13T09:15:51.000Z</time>
      </trkpt>
      <trkpt lat="35.173218" lon="-79.509034">
        <ele>153.394103</ele>
        <time>2024-04-13T09:16:05.000Z</time>
      </trkpt>
      <trkpt lat="35.172724" lon="-79.509048">
        <ele>152.949669</ele>
        <time>2024-04-13T09:16:10.000Z</time>
      </trkpt>
      <trkpt lat="35.171816" lon="-79.509081">
        <ele>152.557476</ele>
        <time>2024-04-13T09:16:20.000Z</time>
      </trkpt>
      <trkpt lat="35.170257" lon="-79.509138">
        <ele>152.023438</ele>
        <time>2024-04-13T09:16:37.000Z</time>
      </trkpt>
      <trkpt lat="35.167735" lon="-79.509251">
        <ele>150.294547</ele>
        <time>2024-04-13T09:17:05.000Z</time>
      </trkpt>
      <trkpt lat="35.166686" lon="-79.509286">
        <ele>148.62742</ele>
        <time>2024-04-13T09:17:17.000Z</time>
      </trkpt>
      <trkpt lat="35.166567" lon="-79.509242">
        <ele>148.290509</ele>
        <time>2024-04-13T09:17:18.000Z</time>
      </trkpt>
      <trkpt lat="35.166496" lon="-79.509162">
        <ele>148.072051</ele>
        <time>2024-04-13T09:17:19.000Z</time>
      </trkpt>
      <trkpt lat="35.166463" lon="-79.508995">
        <ele>147.68512</ele>
        <time>2024-04-13T09:17:21.000Z</time>
      </trkpt>
      <trkpt lat="35.16661" lon="-79.503627">
        <ele>136.395486</ele>
        <time>2024-04-13T09:18:10.000Z</time>
      </trkpt>
      <trkpt lat="35.166915" lon="-79.500844">
        <ele>132.163822</ele>
        <time>2024-04-13T09:18:36.000Z</time>
      </trkpt>
      <trkpt lat="35.16695" lon="-79.500267">
        <ele>132.214042</ele>
        <time>2024-04-13T09:18:41.000Z</time>
      </trkpt>
      <trkpt lat="35.166904" lon="-79.499839">
        <ele>132.249332</ele>
        <time>2024-04-13T09:18:45.000Z</time>
      </trkpt>
      <trkpt lat="35.16682" lon="-79.499451">
        <ele>132.283139</ele>
        <time>2024-04-13T09:18:49.000Z</time>
      </trkpt>
      <trkpt lat="35.166673" lon="-79.498995">
        <ele>132.320173</ele>
        <time>2024-04-13T09:18:53.000Z</time>
      </trkpt>
      <trkpt lat="35.166496" lon="-79.49862">
        <ele>132.35290202</ele>
        <time>2024-04-13T09:18:57.000Z</time>
      </trkpt>
      <trkpt lat="35.166008" lon="-79.497947">
        <ele>132.420897169</ele>
        <time>2024-04-13T09:19:05.000Z</time>
      </trkpt>
      <trkpt lat="35.166378" lon="-79.497463">
        <ele>132.470982987</ele>
        <time>2024-04-13T09:19:11.000Z</time>
      </trkpt>
      <trkpt lat="35.16567" lon="-79.496677">
        <ele>132.5593829</ele>
        <time>2024-04-13T09:19:22.000Z</time>
      </trkpt>
      <trkpt lat="35.165664" lon="-79.496684">
        <ele>132.560149508</ele>
        <time>2024-04-13T09:19:22.000Z</time>
      </trkpt>
    </trkseg>
  </trk>
</gpx>

<!--
Performance optimized by W3 Total Cache. Learn more: https://www.boldgrid.com/w3-total-cache/?utm_source=w3tc&utm_medium=footer_comment&utm_campaign=free_plugin

Page Caching using Disk: Enhanced{w3tc_pagecache_reject_reason} 

Served from: www.aquabike.world @ 2026-05-10 16:36:21 by W3 Total Cache
-->